createdAt,value
2022-12-12T00:00:51.182Z,17.08
2022-12-12T00:01:51.206Z,17.09
2022-12-12T00:02:51.254Z,17.09
2022-12-12T00:03:51.325Z,17.09
2022-12-12T00:04:51.165Z,17.09
2022-12-12T00:05:51.128Z,17.11
2022-12-12T00:06:51.299Z,17.12
2022-12-12T00:07:51.125Z,17.11
2022-12-12T00:08:51.093Z,17.11
2022-12-12T00:09:51.102Z,17.12
2022-12-12T00:10:51.100Z,17.12
2022-12-12T00:11:51.058Z,17.14
2022-12-12T00:12:51.207Z,17.14
2022-12-12T00:13:51.092Z,17.14
2022-12-12T00:14:51.040Z,17.12
2022-12-12T00:15:51.088Z,17.14
2022-12-12T00:16:51.041Z,17.14
2022-12-12T00:17:51.006Z,17.14
2022-12-12T00:18:50.989Z,17.12
2022-12-12T00:19:50.996Z,17.14
2022-12-12T00:20:51.199Z,17.14
2022-12-12T00:21:50.960Z,17.14
2022-12-12T00:22:50.927Z,17.14
2022-12-12T00:23:51.138Z,17.12
2022-12-12T00:24:51.138Z,17.12
2022-12-12T00:25:50.922Z,17.14
2022-12-12T00:26:50.965Z,17.14
2022-12-12T00:27:50.869Z,17.14
2022-12-12T00:28:50.875Z,17.12
2022-12-12T00:29:50.970Z,17.12
2022-12-12T00:30:50.879Z,17.11
2022-12-12T00:31:50.893Z,17.11
2022-12-12T00:32:50.834Z,17.11
2022-12-12T00:33:51.154Z,17.12
2022-12-12T00:34:50.869Z,17.11
2022-12-12T00:35:50.822Z,17.12
2022-12-12T00:36:50.800Z,17.09
2022-12-12T00:37:50.802Z,17.11
2022-12-12T00:38:50.775Z,17.09
2022-12-12T00:39:50.760Z,17.09
2022-12-12T00:40:50.739Z,17.09
2022-12-12T00:41:51.642Z,17.09
2022-12-12T00:42:50.757Z,17.11
2022-12-12T00:43:50.728Z,17.11
2022-12-12T00:44:50.708Z,17.09
2022-12-12T00:45:50.700Z,17.09
2022-12-12T00:46:50.935Z,17.09
2022-12-12T00:47:50.804Z,17.11
2022-12-12T00:48:50.647Z,17.12
2022-12-12T00:49:50.669Z,17.12
2022-12-12T00:50:50.626Z,17.11
2022-12-12T00:51:50.618Z,17.11
2022-12-12T00:52:50.654Z,17.09
2022-12-12T00:53:50.604Z,17.09
2022-12-12T00:54:50.576Z,17.11
2022-12-12T00:55:50.600Z,17.11
2022-12-12T00:56:50.554Z,17.09
2022-12-12T00:57:50.600Z,17.11
2022-12-12T00:58:50.538Z,17.11
2022-12-12T00:59:50.532Z,17.11
2022-12-12T01:00:50.516Z,17.08
2022-12-12T01:01:50.574Z,17.08
2022-12-12T01:02:50.560Z,17.08
2022-12-12T01:03:50.496Z,17.08
2022-12-12T01:04:50.493Z,17.09
2022-12-12T01:05:50.508Z,17.09
2022-12-12T01:06:50.479Z,17.09
2022-12-12T01:07:50.450Z,17.11
2022-12-12T01:08:50.453Z,17.09
2022-12-12T01:09:50.449Z,17.09
2022-12-12T01:10:50.427Z,17.08
2022-12-12T01:11:50.405Z,17.09
2022-12-12T01:12:50.427Z,17.08
2022-12-12T01:13:50.395Z,17.08
2022-12-12T01:14:50.417Z,17.08
2022-12-12T01:15:50.408Z,17.08
2022-12-12T01:16:50.345Z,17.08
2022-12-12T01:17:50.348Z,17.08
2022-12-12T01:18:50.358Z,17.08
2022-12-12T01:19:50.327Z,17.08
2022-12-12T01:20:50.389Z,17.08
2022-12-12T01:21:50.309Z,17.08
2022-12-12T01:22:50.285Z,17.08
2022-12-12T01:23:50.290Z,17.08
2022-12-12T01:24:50.966Z,17.06
2022-12-12T01:25:50.276Z,17.08
2022-12-12T01:26:50.244Z,17.08
2022-12-12T01:27:50.232Z,17.11
2022-12-12T01:28:50.223Z,17.09
2022-12-12T01:29:50.211Z,17.09
2022-12-12T01:30:50.212Z,17.09
2022-12-12T01:31:50.183Z,17.09
2022-12-12T01:32:50.170Z,17.09
2022-12-12T01:33:50.197Z,17.08
2022-12-12T01:34:50.159Z,17.08
2022-12-12T01:35:50.144Z,17.08
2022-12-12T01:36:50.192Z,17.06
2022-12-12T01:37:50.111Z,17.09
2022-12-12T01:38:50.135Z,17.08
2022-12-12T01:39:50.103Z,17.08
2022-12-12T01:40:50.082Z,17.08
2022-12-12T01:41:50.123Z,17.06
2022-12-12T01:42:50.074Z,17.08
2022-12-12T01:43:50.070Z,17.08
2022-12-12T01:44:50.041Z,17.08
2022-12-12T01:45:50.142Z,17.06
2022-12-12T01:46:50.123Z,17.08
2022-12-12T01:47:50.024Z,17.08
2022-12-12T01:48:50.019Z,17.08
2022-12-12T01:49:50.015Z,17.09
2022-12-12T01:50:49.984Z,17.08
2022-12-12T01:51:50.060Z,17.09
2022-12-12T01:52:49.966Z,17.09
2022-12-12T01:53:49.971Z,17.09
2022-12-12T01:54:49.929Z,17.09
2022-12-12T01:55:49.939Z,17.09
2022-12-12T01:56:49.914Z,17.11
2022-12-12T01:57:49.948Z,17.09
2022-12-12T01:58:49.898Z,17.11
2022-12-12T01:59:49.880Z,17.09
2022-12-12T02:00:49.908Z,17.11
2022-12-12T02:01:49.935Z,17.12
2022-12-12T02:02:50.684Z,17.11
2022-12-12T02:03:49.842Z,17.12
2022-12-12T02:04:49.863Z,17.12
2022-12-12T02:05:49.813Z,17.12
2022-12-12T02:06:49.803Z,17.14
2022-12-12T02:07:49.840Z,17.14
2022-12-12T02:08:49.779Z,17.15
2022-12-12T02:09:49.778Z,17.14
2022-12-12T02:10:49.782Z,17.14
2022-12-12T02:11:49.775Z,17.14
2022-12-12T02:12:49.730Z,17.15
2022-12-12T02:13:49.747Z,17.15
2022-12-12T02:14:49.767Z,17.15
2022-12-12T02:15:49.765Z,17.15
2022-12-12T02:16:49.690Z,17.16
2022-12-12T02:17:49.688Z,17.15
2022-12-12T02:18:49.681Z,17.15
2022-12-12T02:19:49.689Z,17.16
2022-12-12T02:20:49.669Z,17.15
2022-12-12T02:21:49.631Z,17.15
2022-12-12T02:22:49.653Z,17.16
2022-12-12T02:23:49.633Z,17.16
2022-12-12T02:24:49.631Z,17.16
2022-12-12T02:25:49.633Z,17.15
2022-12-12T02:26:49.596Z,17.15
2022-12-12T02:27:49.621Z,17.16
2022-12-12T02:28:49.559Z,17.15
2022-12-12T02:29:49.555Z,17.16
2022-12-12T02:30:49.549Z,17.16
2022-12-12T02:31:49.614Z,17.15
2022-12-12T02:32:49.542Z,17.15
2022-12-12T02:33:49.520Z,17.15
2022-12-12T02:34:49.531Z,17.16
2022-12-12T02:35:49.479Z,17.16
2022-12-12T02:36:49.491Z,17.15
2022-12-12T02:37:49.520Z,17.15
2022-12-12T02:38:49.447Z,17.14
2022-12-12T02:39:49.448Z,17.15
2022-12-12T02:40:49.472Z,17.14
2022-12-12T02:41:49.430Z,17.15
2022-12-12T02:42:49.436Z,17.14
2022-12-12T02:43:49.415Z,17.15
2022-12-12T02:44:49.382Z,17.15
2022-12-12T02:45:49.415Z,17.14
2022-12-12T02:46:49.403Z,17.15
2022-12-12T02:47:49.376Z,17.15
2022-12-12T02:48:49.372Z,17.15
2022-12-12T02:49:49.340Z,17.14
2022-12-12T02:50:49.326Z,17.14
2022-12-12T02:51:49.303Z,17.12
2022-12-12T02:52:49.326Z,17.12
2022-12-12T02:53:49.298Z,17.12
2022-12-12T02:54:49.289Z,17.12
2022-12-12T02:55:49.267Z,17.11
2022-12-12T02:56:49.252Z,17.11
2022-12-12T02:57:49.270Z,17.12
2022-12-12T02:58:49.227Z,17.14
2022-12-12T02:59:49.458Z,17.12
2022-12-12T03:00:49.249Z,17.11
2022-12-12T03:01:49.296Z,17.11
2022-12-12T03:02:49.185Z,17.09
2022-12-12T03:03:49.218Z,17.11
2022-12-12T03:04:49.181Z,17.09
2022-12-12T03:05:49.158Z,17.09
2022-12-12T03:06:49.163Z,17.09
2022-12-12T03:07:49.315Z,17.09
2022-12-12T03:08:49.150Z,17.09
2022-12-12T03:09:49.118Z,17.08
2022-12-12T03:10:49.137Z,17.08
2022-12-12T03:11:49.139Z,17.08
2022-12-12T03:12:49.088Z,17.08
2022-12-12T03:13:49.076Z,17.06
2022-12-12T03:14:49.082Z,17.06
2022-12-12T03:15:49.067Z,17.06
2022-12-12T03:16:49.046Z,17.08
2022-12-12T03:17:49.037Z,17.06
2022-12-12T03:18:49.040Z,17.05
2022-12-12T03:19:49.008Z,17.06
2022-12-12T03:20:49.007Z,17.06
2022-12-12T03:21:48.994Z,17.05
2022-12-12T03:22:49.067Z,17.05
2022-12-12T03:23:48.964Z,17.05
2022-12-12T03:24:48.955Z,17.06
2022-12-12T03:25:48.951Z,17.06
2022-12-12T03:26:48.956Z,17.05
2022-12-12T03:27:48.924Z,17.06
2022-12-12T03:28:48.939Z,17.05
2022-12-12T03:29:48.903Z,17.06
2022-12-12T03:30:48.884Z,17.06
2022-12-12T03:31:48.905Z,17.05
2022-12-12T03:32:48.877Z,17.08
2022-12-12T03:33:48.876Z,17.06
2022-12-12T03:34:48.866Z,17.08
2022-12-12T03:35:48.830Z,17.06
2022-12-12T03:36:48.835Z,17.06
2022-12-12T03:37:48.816Z,17.08
2022-12-12T03:38:48.827Z,17.05
2022-12-12T03:39:48.801Z,17.06
2022-12-12T03:40:48.789Z,17.06
2022-12-12T03:41:48.765Z,17.06
2022-12-12T03:42:48.751Z,17.08
2022-12-12T03:43:48.751Z,17.08
2022-12-12T03:44:48.747Z,17.08
2022-12-12T03:45:48.798Z,17.08
2022-12-12T03:46:48.722Z,17.06
2022-12-12T03:47:48.695Z,17.06
2022-12-12T03:48:48.708Z,17.08
2022-12-12T03:49:48.687Z,17.08
2022-12-12T03:50:48.698Z,17.06
2022-12-12T03:51:48.660Z,17.08
2022-12-12T03:52:48.673Z,17.08
2022-12-12T03:53:48.641Z,17.09
2022-12-12T03:54:48.637Z,17.09
2022-12-12T03:55:48.615Z,17.08
2022-12-12T03:56:48.620Z,17.08
2022-12-12T03:57:48.595Z,17.09
2022-12-12T03:58:48.605Z,17.08
2022-12-12T03:59:48.597Z,17.08
2022-12-12T04:00:48.605Z,17.08
2022-12-12T04:01:48.587Z,17.09
2022-12-12T04:02:48.529Z,17.09
2022-12-12T04:03:48.523Z,17.08
2022-12-12T04:04:48.511Z,17.08
2022-12-12T04:05:48.525Z,17.09
2022-12-12T04:06:48.508Z,17.09
2022-12-12T04:07:48.533Z,17.09
2022-12-12T04:08:48.506Z,17.09
2022-12-12T04:09:48.452Z,17.09
2022-12-12T04:10:48.492Z,17.09
2022-12-12T04:11:48.446Z,17.11
2022-12-12T04:12:48.418Z,17.11
2022-12-12T04:13:48.410Z,17.09
2022-12-12T04:14:48.429Z,17.08
2022-12-12T04:15:48.429Z,17.09
2022-12-12T04:16:48.528Z,17.08
2022-12-12T04:17:48.361Z,17.09
2022-12-12T04:18:48.381Z,17.08
2022-12-12T04:19:48.383Z,17.08
2022-12-12T04:20:48.378Z,17.06
2022-12-12T04:21:48.332Z,17.05
2022-12-12T04:22:48.334Z,17.04
2022-12-12T04:23:48.332Z,17.04
2022-12-12T04:24:48.315Z,17.04
2022-12-12T04:25:48.279Z,17.04
2022-12-12T04:26:48.278Z,17.01
2022-12-12T04:27:48.271Z,16.99
2022-12-12T04:28:48.271Z,16.99
2022-12-12T04:29:48.249Z,16.97
2022-12-12T04:30:48.217Z,16.96
2022-12-12T04:31:48.262Z,16.96
2022-12-12T04:32:48.209Z,16.96
2022-12-12T04:33:48.213Z,16.96
2022-12-12T04:34:48.211Z,16.93
2022-12-12T04:35:48.171Z,16.93
2022-12-12T04:36:48.159Z,16.91
2022-12-12T04:37:48.155Z,16.91
2022-12-12T04:38:48.137Z,16.91
2022-12-12T04:39:48.132Z,16.90
2022-12-12T04:40:48.140Z,16.89
2022-12-12T04:41:48.109Z,16.87
2022-12-12T04:42:48.121Z,16.89
2022-12-12T04:43:48.113Z,16.87
2022-12-12T04:44:48.073Z,16.87
2022-12-12T04:45:48.133Z,16.87
2022-12-12T04:46:48.102Z,16.87
2022-12-12T04:47:48.033Z,16.86
2022-12-12T04:48:51.748Z,16.86
2022-12-12T04:49:49.031Z,16.84
2022-12-12T04:50:48.020Z,16.86
2022-12-12T04:51:48.008Z,16.86
2022-12-12T04:52:48.006Z,16.84
2022-12-12T04:53:47.982Z,16.84
2022-12-12T04:54:48.023Z,16.84
2022-12-12T04:55:47.960Z,16.84
2022-12-12T04:56:47.949Z,16.83
2022-12-12T04:57:47.952Z,16.83
2022-12-12T04:58:47.929Z,16.84
2022-12-12T04:59:47.930Z,16.83
2022-12-12T05:00:47.974Z,16.83
2022-12-12T05:01:52.896Z,16.83
2022-12-12T05:02:48.950Z,16.84
2022-12-12T05:03:47.856Z,16.83
2022-12-12T05:04:47.846Z,16.83
2022-12-12T05:05:47.836Z,16.83
2022-12-12T05:06:47.836Z,16.84
2022-12-12T05:07:47.891Z,16.83
2022-12-12T05:08:47.828Z,16.84
2022-12-12T05:09:47.816Z,16.84
2022-12-12T05:10:47.786Z,16.84
2022-12-12T05:11:47.777Z,16.84
2022-12-12T05:12:47.770Z,16.84
2022-12-12T05:13:47.771Z,16.86
2022-12-12T05:14:47.774Z,16.87
2022-12-12T05:15:47.761Z,16.86
2022-12-12T05:16:47.782Z,16.87
2022-12-12T05:17:47.723Z,16.89
2022-12-12T05:18:47.721Z,16.89
2022-12-12T05:19:47.704Z,16.89
2022-12-12T05:20:47.696Z,16.89
2022-12-12T05:21:47.666Z,16.90
2022-12-12T05:22:47.678Z,16.91
2022-12-12T05:23:47.654Z,16.91
2022-12-12T05:24:47.680Z,16.91
2022-12-12T05:25:47.648Z,16.93
2022-12-12T05:26:47.624Z,16.94
2022-12-12T05:27:47.603Z,16.94
2022-12-12T05:28:47.589Z,16.94
2022-12-12T05:29:47.578Z,16.96
2022-12-12T05:30:47.658Z,16.96
2022-12-12T05:31:47.559Z,16.96
2022-12-12T05:32:47.551Z,16.99
2022-12-12T05:33:47.526Z,16.99
2022-12-12T05:34:47.546Z,17.01
2022-12-12T05:35:47.532Z,17.01
2022-12-12T05:36:47.527Z,17.01
2022-12-12T05:37:51.627Z,17.02
2022-12-12T05:38:47.499Z,17.02
2022-12-12T05:39:47.507Z,17.04
2022-12-12T05:40:47.473Z,17.04
2022-12-12T05:41:47.437Z,17.02
2022-12-12T05:42:47.456Z,17.04
2022-12-12T05:43:47.428Z,17.04
2022-12-12T05:44:47.427Z,17.05
2022-12-12T05:45:47.475Z,17.05
2022-12-12T05:46:47.413Z,17.05
2022-12-12T05:47:47.384Z,17.05
2022-12-12T05:48:47.408Z,17.05
2022-12-12T05:49:47.369Z,17.05
2022-12-12T05:50:47.334Z,17.06
2022-12-12T05:51:47.349Z,17.08
2022-12-12T05:52:47.325Z,17.08
2022-12-12T05:53:47.327Z,17.08
2022-12-12T05:54:47.306Z,17.08
2022-12-12T05:55:47.284Z,17.08
2022-12-12T05:56:47.298Z,17.09
2022-12-12T05:57:47.264Z,17.09
2022-12-12T05:58:47.254Z,17.11
2022-12-12T05:59:47.306Z,17.12
2022-12-12T06:00:47.261Z,17.11
2022-12-12T06:01:47.236Z,17.11
2022-12-12T06:02:47.272Z,17.11
2022-12-12T06:03:47.263Z,17.11
2022-12-12T06:04:47.243Z,17.12
2022-12-12T06:05:47.195Z,17.09
2022-12-12T06:06:47.175Z,17.12
2022-12-12T06:07:47.216Z,17.12
2022-12-12T06:08:47.142Z,17.12
2022-12-12T06:09:47.136Z,17.14
2022-12-12T06:10:47.133Z,17.14
2022-12-12T06:11:47.143Z,17.12
2022-12-12T06:12:47.121Z,17.14
2022-12-12T06:13:47.092Z,17.12
2022-12-12T06:14:47.082Z,17.12
2022-12-12T06:15:47.121Z,17.14
2022-12-12T06:16:47.060Z,17.14
2022-12-12T06:17:47.046Z,17.14
2022-12-12T06:18:47.032Z,17.15
2022-12-12T06:19:47.069Z,17.15
2022-12-12T06:20:47.037Z,17.15
2022-12-12T06:21:47.002Z,17.15
2022-12-12T06:22:53.440Z,17.14
2022-12-12T06:23:47.981Z,17.15
2022-12-12T06:24:46.988Z,17.15
2022-12-12T06:25:46.991Z,17.15
2022-12-12T06:26:46.954Z,17.15
2022-12-12T06:27:46.934Z,17.15
2022-12-12T06:28:46.922Z,17.16
2022-12-12T06:29:46.952Z,17.15
2022-12-12T06:30:46.951Z,17.15
2022-12-12T06:31:46.925Z,17.15
2022-12-12T06:32:46.881Z,17.16
2022-12-12T06:33:46.881Z,17.15
2022-12-12T06:34:46.888Z,17.16
2022-12-12T06:35:46.870Z,17.16
2022-12-12T06:36:46.843Z,17.16
2022-12-12T06:37:46.821Z,17.15
2022-12-12T06:38:46.818Z,17.16
2022-12-12T06:39:46.844Z,17.15
2022-12-12T06:40:46.806Z,17.15
2022-12-12T06:41:46.798Z,17.19
2022-12-12T06:42:48.730Z,17.16
2022-12-12T06:43:46.791Z,17.19
2022-12-12T06:44:46.739Z,17.15
2022-12-12T06:45:46.754Z,17.19
2022-12-12T06:46:46.782Z,17.16
2022-12-12T06:47:46.731Z,17.16
2022-12-12T06:48:46.699Z,17.16
2022-12-12T06:49:46.703Z,17.16
2022-12-12T06:50:46.695Z,17.16
2022-12-12T06:51:46.678Z,17.19
2022-12-12T06:52:46.669Z,17.15
2022-12-12T06:53:46.661Z,17.19
2022-12-12T06:54:46.653Z,17.16
2022-12-12T06:55:46.641Z,17.19
2022-12-12T06:56:48.739Z,17.16
2022-12-12T06:57:46.622Z,17.15
2022-12-12T06:58:46.634Z,17.16
2022-12-12T06:59:46.591Z,17.19
2022-12-12T07:00:46.584Z,17.19
2022-12-12T07:01:46.624Z,17.19
2022-12-12T07:02:46.614Z,17.16
2022-12-12T07:03:46.540Z,17.20
2022-12-12T07:04:46.551Z,17.19
2022-12-12T07:05:46.538Z,17.19
2022-12-12T07:06:46.505Z,17.19
2022-12-12T07:07:46.543Z,17.16
2022-12-12T07:08:46.488Z,17.16
2022-12-12T07:09:46.504Z,17.16
2022-12-12T07:10:46.481Z,17.16
2022-12-12T07:11:46.472Z,17.16
2022-12-12T07:12:47.840Z,17.16
2022-12-12T07:13:46.468Z,17.15
2022-12-12T07:14:46.463Z,17.15
2022-12-12T07:15:46.471Z,17.15
2022-12-12T07:16:46.396Z,17.15
2022-12-12T07:17:46.424Z,17.15
2022-12-12T07:18:46.392Z,17.15
2022-12-12T07:19:46.371Z,17.14
2022-12-12T07:20:46.368Z,17.15
2022-12-12T07:21:46.359Z,17.15
2022-12-12T07:22:46.325Z,17.15
2022-12-12T07:23:46.360Z,17.15
2022-12-12T07:24:46.308Z,17.14
2022-12-12T07:25:46.358Z,17.14
2022-12-12T07:26:46.299Z,17.15
2022-12-12T07:27:46.279Z,17.15
2022-12-12T07:28:46.256Z,17.15
2022-12-12T07:29:46.281Z,17.14
2022-12-12T07:30:46.280Z,17.14
2022-12-12T07:31:46.269Z,17.14
2022-12-12T07:32:46.240Z,17.14
2022-12-12T07:33:46.226Z,17.14
2022-12-12T07:34:46.341Z,17.14
2022-12-12T07:35:46.202Z,17.15
2022-12-12T07:36:46.187Z,17.12
2022-12-12T07:37:46.188Z,17.14
2022-12-12T07:38:46.179Z,17.14
2022-12-12T07:39:46.172Z,17.12
2022-12-12T07:40:46.146Z,17.14
2022-12-12T07:41:46.148Z,17.12
2022-12-12T07:42:46.125Z,17.12
2022-12-12T07:43:46.148Z,17.14
2022-12-12T07:44:46.099Z,17.11
2022-12-12T07:45:46.102Z,17.12
2022-12-12T07:46:46.100Z,17.11
2022-12-12T07:47:46.076Z,17.11
2022-12-12T07:48:46.090Z,17.11
2022-12-12T07:49:46.054Z,17.09
2022-12-12T07:50:46.026Z,17.11
2022-12-12T07:51:49.254Z,17.11
2022-12-12T07:52:48.502Z,17.09
2022-12-12T07:53:46.021Z,17.09
2022-12-12T07:54:46.244Z,17.08
2022-12-12T07:55:45.990Z,17.08
2022-12-12T07:56:45.954Z,17.06
2022-12-12T07:57:45.980Z,17.06
2022-12-12T07:58:46.083Z,17.05
2022-12-12T07:59:46.034Z,17.04
2022-12-12T08:00:45.927Z,17.02
2022-12-12T08:01:46.154Z,17.02
2022-12-12T08:02:45.905Z,17.01
2022-12-12T08:03:45.903Z,17.01
2022-12-12T08:04:45.955Z,16.99
2022-12-12T08:05:45.885Z,16.97
2022-12-12T08:06:45.862Z,16.96
2022-12-12T08:07:45.912Z,16.96
2022-12-12T08:08:45.835Z,16.96
2022-12-12T08:09:45.827Z,16.94
2022-12-12T08:10:45.837Z,16.91
2022-12-12T08:11:46.822Z,16.91
2022-12-12T08:12:45.875Z,16.93
2022-12-12T08:13:45.799Z,16.93
2022-12-12T08:14:45.794Z,16.91
2022-12-12T08:15:45.788Z,16.91
2022-12-12T08:16:45.768Z,16.93
2022-12-12T08:17:45.741Z,16.93
2022-12-12T08:18:45.722Z,16.94
2022-12-12T08:19:45.725Z,16.94
2022-12-12T08:20:45.693Z,16.96
2022-12-12T08:21:45.725Z,16.97
2022-12-12T08:22:45.670Z,16.97
2022-12-12T08:23:45.703Z,16.97
2022-12-12T08:24:45.697Z,16.99
2022-12-12T08:25:45.672Z,17.01
2022-12-12T08:26:45.691Z,16.99
2022-12-12T08:27:45.628Z,17.01
2022-12-12T08:28:45.704Z,17.01
2022-12-12T08:29:45.590Z,17.02
2022-12-12T08:30:45.615Z,17.04
2022-12-12T08:31:45.637Z,17.02
2022-12-12T08:32:45.573Z,17.04
2022-12-12T08:33:45.576Z,17.04
2022-12-12T08:34:45.563Z,17.05
2022-12-12T08:35:45.554Z,17.05
2022-12-12T08:36:45.531Z,17.05
2022-12-12T08:37:45.510Z,17.06
2022-12-12T08:38:45.497Z,17.05
2022-12-12T08:39:45.532Z,17.06
2022-12-12T08:40:45.492Z,17.06
2022-12-12T08:41:45.526Z,17.06
2022-12-12T08:42:45.462Z,17.08
2022-12-12T08:43:45.452Z,17.08
2022-12-12T08:44:45.439Z,17.08
2022-12-12T08:45:45.439Z,17.08
2022-12-12T08:46:45.452Z,17.08
2022-12-12T08:47:45.408Z,17.09
2022-12-12T08:48:45.390Z,17.08
2022-12-12T08:49:45.419Z,17.08
2022-12-12T08:50:45.407Z,17.08
2022-12-12T08:51:45.390Z,17.11
2022-12-12T08:52:45.394Z,17.09
2022-12-12T08:53:45.401Z,17.09
2022-12-12T08:54:45.343Z,17.09
2022-12-12T08:55:45.350Z,17.08
2022-12-12T08:56:45.299Z,17.09
2022-12-12T08:57:45.289Z,17.09
2022-12-12T08:58:45.435Z,17.11
2022-12-12T08:59:45.282Z,17.11
2022-12-12T09:00:45.312Z,17.11
2022-12-12T09:01:45.368Z,17.12
2022-12-12T09:02:45.336Z,17.14
2022-12-12T09:03:45.250Z,17.14
2022-12-12T09:04:45.224Z,17.14
2022-12-12T09:05:45.200Z,17.15
2022-12-12T09:06:45.209Z,17.14
2022-12-12T09:07:45.204Z,17.14
2022-12-12T09:08:45.199Z,17.15
2022-12-12T09:09:45.183Z,17.15
2022-12-12T09:10:45.202Z,17.15
2022-12-12T09:11:45.162Z,17.15
2022-12-12T09:12:45.135Z,17.14
2022-12-12T09:13:45.145Z,17.15
2022-12-12T09:14:45.159Z,17.15
2022-12-12T09:15:45.109Z,17.15
2022-12-12T09:16:45.165Z,17.16
2022-12-12T09:17:45.083Z,17.16
2022-12-12T09:18:49.046Z,17.19
2022-12-12T09:19:45.093Z,17.16
2022-12-12T09:20:45.075Z,17.16
2022-12-12T09:21:45.089Z,17.16
2022-12-12T09:22:45.027Z,17.15
2022-12-12T09:23:45.036Z,17.16
2022-12-12T09:24:45.000Z,17.19
2022-12-12T09:25:45.067Z,17.16
2022-12-12T09:26:45.001Z,17.15
2022-12-12T09:27:44.997Z,17.19
2022-12-12T09:28:45.039Z,17.16
2022-12-12T09:29:44.940Z,17.16
2022-12-12T09:30:44.958Z,17.19
2022-12-12T09:31:45.005Z,17.19
2022-12-12T09:32:44.921Z,17.19
2022-12-12T09:33:45.192Z,17.16
2022-12-12T09:34:44.959Z,17.16
2022-12-12T09:35:44.878Z,17.19
2022-12-12T09:36:44.889Z,17.19
2022-12-12T09:37:44.900Z,17.16
2022-12-12T09:38:44.848Z,17.16
2022-12-12T09:39:44.856Z,17.16
2022-12-12T09:40:44.840Z,17.19
2022-12-12T09:41:44.823Z,17.19
2022-12-12T09:42:44.826Z,17.16
2022-12-12T09:43:44.821Z,17.19
2022-12-12T09:44:44.786Z,17.19
2022-12-12T09:45:44.790Z,17.16
2022-12-12T09:46:44.796Z,17.16
2022-12-12T09:47:44.780Z,17.16
2022-12-12T09:48:44.811Z,17.16
2022-12-12T09:49:44.755Z,17.19
2022-12-12T09:50:44.726Z,17.16
2022-12-12T09:51:44.715Z,17.19
2022-12-12T09:52:44.703Z,17.19
2022-12-12T09:53:44.719Z,17.19
2022-12-12T09:54:44.875Z,17.19
2022-12-12T09:55:44.681Z,17.16
2022-12-12T09:56:44.669Z,17.16
2022-12-12T09:57:44.658Z,17.16
2022-12-12T09:58:49.109Z,17.20
2022-12-12T09:59:45.640Z,17.19
2022-12-12T10:00:44.684Z,17.19
2022-12-12T10:01:44.670Z,17.20
2022-12-12T10:02:44.613Z,17.19
2022-12-12T10:03:44.598Z,17.19
2022-12-12T10:04:50.634Z,17.20
2022-12-12T10:05:45.581Z,17.19
2022-12-12T10:06:44.561Z,17.19
2022-12-12T10:07:44.548Z,17.16
2022-12-12T10:08:44.522Z,17.16
2022-12-12T10:09:44.510Z,17.16
2022-12-12T10:10:44.519Z,17.16
2022-12-12T10:11:44.539Z,17.15
2022-12-12T10:12:44.484Z,17.16
2022-12-12T10:13:44.481Z,17.16
2022-12-12T10:14:44.477Z,17.16
2022-12-12T10:15:44.472Z,17.16
2022-12-12T10:16:44.480Z,17.16
2022-12-12T10:17:44.445Z,17.15
2022-12-12T10:18:44.421Z,17.16
2022-12-12T10:19:44.436Z,17.16
2022-12-12T10:20:44.397Z,17.16
2022-12-12T10:21:44.395Z,17.19
2022-12-12T10:22:44.378Z,17.19
2022-12-12T10:23:44.399Z,17.16
2022-12-12T10:24:44.350Z,17.16
2022-12-12T10:25:44.386Z,17.19
2022-12-12T10:26:44.387Z,17.19
2022-12-12T10:27:44.332Z,17.19
2022-12-12T10:28:44.303Z,17.20
2022-12-12T10:29:44.283Z,17.20
2022-12-12T10:30:44.272Z,17.20
2022-12-12T10:31:44.350Z,17.20
2022-12-12T10:32:44.276Z,17.20
2022-12-12T10:33:44.276Z,17.22
2022-12-12T10:34:44.267Z,17.23
2022-12-12T10:35:44.236Z,17.20
2022-12-12T10:36:44.221Z,17.20
2022-12-12T10:37:44.219Z,17.23
2022-12-12T10:38:44.205Z,17.24
2022-12-12T10:39:44.536Z,17.23
2022-12-12T10:40:44.165Z,17.24
2022-12-12T10:41:44.164Z,17.26
2022-12-12T10:42:44.166Z,17.26
2022-12-12T10:43:44.161Z,17.26
2022-12-12T10:44:47.131Z,17.27
2022-12-12T10:45:44.150Z,17.29
2022-12-12T10:46:44.167Z,17.29
2022-12-12T10:47:44.112Z,17.29
2022-12-12T10:48:44.116Z,17.29
2022-12-12T10:49:44.137Z,17.31
2022-12-12T10:50:44.086Z,17.31
2022-12-12T10:51:44.049Z,17.33
2022-12-12T10:52:44.060Z,17.33
2022-12-12T10:53:44.051Z,17.34
2022-12-12T10:54:44.065Z,17.34
2022-12-12T10:55:44.025Z,17.36
2022-12-12T10:56:44.033Z,17.36
2022-12-12T10:57:44.004Z,17.38
2022-12-12T10:58:44.004Z,17.39
2022-12-12T10:59:44.104Z,17.38
2022-12-12T11:00:44.034Z,17.41
2022-12-12T11:02:45.008Z,17.42
2022-12-12T11:03:44.005Z,17.42
2022-12-12T11:04:43.921Z,17.42
2022-12-12T11:05:43.903Z,17.44
2022-12-12T11:06:43.915Z,17.46
2022-12-12T11:07:43.872Z,17.45
2022-12-12T11:08:43.887Z,17.45
2022-12-12T11:09:43.872Z,17.45
2022-12-12T11:10:43.852Z,17.45
2022-12-12T11:11:43.830Z,17.46
2022-12-12T11:12:43.831Z,17.46
2022-12-12T11:13:43.842Z,17.48
2022-12-12T11:14:43.802Z,17.48
2022-12-12T11:15:43.832Z,17.48
2022-12-12T11:16:43.822Z,17.48
2022-12-12T11:17:43.774Z,17.48
2022-12-12T11:18:43.777Z,17.46
2022-12-12T11:19:43.753Z,17.49
2022-12-12T11:20:43.776Z,17.49
2022-12-12T11:21:43.728Z,17.51
2022-12-12T11:22:43.727Z,17.49
2022-12-12T11:23:43.736Z,17.51
2022-12-12T11:24:43.732Z,17.51
2022-12-12T11:25:43.730Z,17.52
2022-12-12T11:26:43.672Z,17.52
2022-12-12T11:27:43.746Z,17.52
2022-12-12T11:28:43.654Z,17.52
2022-12-12T11:29:43.648Z,17.52
2022-12-12T11:30:43.653Z,17.51
2022-12-12T11:31:43.716Z,17.51
2022-12-12T11:32:43.614Z,17.52
2022-12-12T11:33:43.595Z,17.54
2022-12-12T11:34:43.604Z,17.52
2022-12-12T11:35:47.459Z,17.54
2022-12-12T11:36:43.570Z,17.54
2022-12-12T11:37:43.549Z,17.54
2022-12-12T11:38:43.540Z,17.54
2022-12-12T11:39:43.532Z,17.56
2022-12-12T11:40:43.533Z,17.57
2022-12-12T11:41:43.522Z,17.57
2022-12-12T11:42:43.526Z,17.60
2022-12-12T11:43:43.491Z,17.60
2022-12-12T11:44:43.492Z,17.64
2022-12-12T11:45:43.555Z,17.65
2022-12-12T11:46:43.453Z,17.67
2022-12-12T11:47:43.472Z,17.67
2022-12-12T11:48:43.460Z,17.68
2022-12-12T11:49:43.444Z,17.70
2022-12-12T11:50:43.421Z,17.71
2022-12-12T11:51:43.420Z,17.72
2022-12-12T11:52:43.423Z,17.72
2022-12-12T11:53:43.412Z,17.72
2022-12-12T11:54:43.385Z,17.74
2022-12-12T11:55:43.403Z,17.78
2022-12-12T11:56:43.395Z,17.80
2022-12-12T11:57:43.351Z,17.82
2022-12-12T11:58:43.321Z,17.83
2022-12-12T11:59:43.330Z,17.86
2022-12-12T12:00:43.322Z,17.86
2022-12-12T12:01:43.323Z,17.89
2022-12-12T12:02:43.315Z,17.90
2022-12-12T12:03:43.348Z,17.92
2022-12-12T12:04:45.899Z,17.94
2022-12-12T12:05:44.271Z,17.97
2022-12-12T12:06:43.250Z,17.95
2022-12-12T12:07:43.316Z,17.97
2022-12-12T12:08:43.243Z,17.97
2022-12-12T12:09:43.226Z,17.95
2022-12-12T12:10:43.211Z,17.89
2022-12-12T12:11:43.187Z,17.87
2022-12-12T12:12:43.187Z,17.85
2022-12-12T12:13:43.178Z,17.83
2022-12-12T12:14:43.173Z,17.80
2022-12-12T12:15:43.145Z,17.79
2022-12-12T12:16:43.165Z,17.79
2022-12-12T12:17:43.117Z,17.79
2022-12-12T12:18:43.112Z,17.78
2022-12-12T12:19:43.131Z,17.74
2022-12-12T12:20:43.100Z,17.71
2022-12-12T12:21:43.091Z,17.68
2022-12-12T12:22:43.078Z,17.67
2022-12-12T12:23:47.451Z,17.65
2022-12-12T12:24:44.056Z,17.64
2022-12-12T12:25:43.048Z,17.63
2022-12-12T12:26:43.027Z,17.60
2022-12-12T12:27:43.022Z,17.59
2022-12-12T12:28:43.021Z,17.59
2022-12-12T12:29:43.012Z,17.59
2022-12-12T12:30:43.049Z,17.56
2022-12-12T12:31:42.970Z,17.56
2022-12-12T12:32:42.967Z,17.54
2022-12-12T12:33:42.977Z,17.52
2022-12-12T12:34:42.956Z,17.51
2022-12-12T12:35:42.916Z,17.52
2022-12-12T12:36:42.951Z,17.49
2022-12-12T12:37:42.910Z,17.48
2022-12-12T12:38:42.885Z,17.48
2022-12-12T12:39:42.890Z,17.48
2022-12-12T12:40:42.865Z,17.46
2022-12-12T12:41:42.870Z,17.46
2022-12-12T12:42:47.929Z,17.46
2022-12-12T12:43:43.840Z,17.45
2022-12-12T12:44:42.854Z,17.44
2022-12-12T12:45:42.871Z,17.44
2022-12-12T12:46:42.806Z,17.44
2022-12-12T12:47:42.798Z,17.42
2022-12-12T12:48:42.776Z,17.42
2022-12-12T12:49:42.789Z,17.39
2022-12-12T12:50:42.788Z,17.41
2022-12-12T12:51:47.076Z,17.41
2022-12-12T12:52:43.780Z,17.39
2022-12-12T12:53:42.751Z,17.39